Time;durP1;ratioP1;P1;durP2;ratioP2;P2;SDS_P1;SDS_P2;PMS_P1;PMS_P2;Temp;Humidity;BMP_temperature;BMP_pressure;BME280_temperature;BME280_humidity;BME280_pressure;Samples;Min_cycle;Max_cycle;Signal;HPM_P1;HPM_P2
2021/10/07 00:01:11;;;;;;;10.55;2.47;;;;;;;;;;5056087;28;20037;-77
2021/10/07 00:03:36;;;;;;;15.65;3.58;;;;;;;;;;5056268;28;20116;-78
2021/10/07 00:06:01;;;;;;;12.75;2.88;;;;;;;;;;5055997;28;20094;-77
2021/10/07 00:08:26;;;;;;;18.42;3.05;;;;;;;;;;5055815;28;20049;-77
2021/10/07 00:10:52;;;;;;;11.68;2.60;;;;;;;;;;5055757;28;20029;-77
2021/10/07 00:13:17;;;;;;;12.40;2.72;;;;;;;;;;5056206;28;20052;-77
2021/10/07 00:15:42;;;;;;;11.38;2.70;;;;;;;;;;5055742;28;20052;-77
2021/10/07 00:18:08;;;;;;;14.00;2.78;;;;;;;;;;5055718;28;20025;-77
2021/10/07 00:20:33;;;;;;;12.15;2.90;;;;;;;;;;5055611;28;20545;-77
2021/10/07 00:22:58;;;;;;;14.95;2.85;;;;;;;;;;5055490;28;20052;-77
2021/10/07 00:25:24;;;;;;;13.88;3.25;;;;;;;;;;5055429;28;20028;-77
2021/10/07 00:27:49;;;;;;;8.23;3.30;;;;;;;;;;5055549;28;20496;-76
2021/10/07 00:30:17;;;;;;;14.32;3.05;;;;;;;;;;5055535;28;20017;-77
2021/10/07 00:40:42;;;;;;;19.02;3.35;;;;;;;;;;5054892;28;20109;-76
2021/10/07 00:43:07;;;;;;;11.52;3.20;;;;;;;;;;5055251;28;20021;-76
2021/10/07 00:45:33;;;;;;;13.30;3.83;;;;;;;;;;5055098;28;20043;-77
2021/10/07 00:47:58;;;;;;;8.02;2.55;;;;;;;;;;5055083;28;20035;-76
2021/10/07 00:50:23;;;;;;;8.13;2.70;;;;;;;;;;5055234;28;20082;-76
2021/10/07 00:52:48;;;;;;;12.48;2.50;;;;;;;;;;5055002;28;20363;-77
2021/10/07 00:55:14;;;;;;;10.05;2.80;;;;;;;;;;5055062;28;20028;-77
2021/10/07 00:57:40;;;;;;;14.15;2.72;;;;;;;;;;5055127;28;20406;-77
2021/10/07 01:00:06;;;;;;;11.63;2.80;;;;;;;;;;5054736;28;20047;-77
2021/10/07 01:02:31;;;;;;;13.63;3.00;;;;;;;;;;5054675;28;20100;-77
2021/10/07 01:04:56;;;;;;;9.98;3.13;;;;;;;;;;5054310;28;20017;-77
2021/10/07 01:07:22;;;;;;;8.77;2.92;;;;;;;;;;5053541;28;20045;-77
2021/10/07 01:09:47;;;;;;;17.98;2.67;;;;;;;;;;5054286;28;20017;-77
2021/10/07 01:12:13;;;;;;;8.40;2.72;;;;;;;;;;5055140;28;20064;-77
2021/10/07 01:14:56;;;;;;;11.77;2.83;;;;;;;;;;5054646;28;20036;-78
2021/10/07 01:17:23;;;;;;;5.82;2.30;;;;;;;;;;5054680;28;20032;-76
2021/10/07 01:19:49;;;;;;;10.90;3.03;;;;;;;;;;5054051;28;20432;-77
2021/10/07 01:22:15;;;;;;;9.63;2.50;;;;;;;;;;5054661;28;20070;-77
2021/10/07 01:24:40;;;;;;;8.52;2.30;;;;;;;;;;5054198;28;20029;-77
2021/10/07 01:27:06;;;;;;;10.15;2.45;;;;;;;;;;5054440;28;20033;-77
2021/10/07 01:29:31;;;;;;;9.05;2.13;;;;;;;;;;5054344;28;20025;-78
2021/10/07 01:31:57;;;;;;;12.85;2.33;;;;;;;;;;5054083;28;20053;-77
2021/10/07 01:34:24;;;;;;;11.48;2.60;;;;;;;;;;5054180;28;20045;-77
2021/10/07 01:36:50;;;;;;;15.07;2.38;;;;;;;;;;5054117;28;20021;-77
2021/10/07 01:39:15;;;;;;;6.40;1.90;;;;;;;;;;5054249;28;20065;-77
2021/10/07 01:41:41;;;;;;;12.80;2.22;;;;;;;;;;5054089;28;20478;-77
2021/10/07 01:44:06;;;;;;;8.65;2.17;;;;;;;;;;5054010;28;20017;-77
2021/10/07 01:46:32;;;;;;;13.57;2.30;;;;;;;;;;5054040;28;20021;-78
2021/10/07 01:48:57;;;;;;;11.82;2.58;;;;;;;;;;5053925;28;20044;-77
2021/10/07 01:51:22;;;;;;;12.13;2.55;;;;;;;;;;5053716;28;20021;-76
2021/10/07 01:53:48;;;;;;;7.65;2.22;;;;;;;;;;5053673;28;20017;-77
2021/10/07 01:56:13;;;;;;;9.85;2.53;;;;;;;;;;5053961;28;20032;-77
2021/10/07 01:58:38;;;;;;;10.52;2.53;;;;;;;;;;5053790;28;20017;-77
2021/10/07 02:01:03;;;;;;;11.82;2.70;;;;;;;;;;5053567;28;20108;-77
2021/10/07 02:03:29;;;;;;;16.25;3.00;;;;;;;;;;5053704;28;20032;-77
2021/10/07 02:05:54;;;;;;;14.07;2.92;;;;;;;;;;5053658;28;20017;-76
2021/10/07 02:08:19;;;;;;;13.95;2.42;;;;;;;;;;5053849;28;20061;-78
2021/10/07 02:10:44;;;;;;;9.23;2.40;;;;;;;;;;5053669;28;20381;-77
2021/10/07 02:13:10;;;;;;;18.35;4.22;;;;;;;;;;5053617;28;20021;-77
2021/10/07 02:15:35;;;;;;;9.65;2.50;;;;;;;;;;5053688;28;20369;-77
2021/10/07 02:18:00;;;;;;;10.20;2.25;;;;;;;;;;5053168;28;20029;-77
2021/10/07 02:20:26;;;;;;;7.20;2.10;;;;;;;;;;5053466;28;20083;-77
2021/10/07 02:22:51;;;;;;;9.05;1.95;;;;;;;;;;5053390;28;20025;-76
2021/10/07 02:25:16;;;;;;;12.73;2.55;;;;;;;;;;5053251;28;20402;-77
2021/10/07 02:27:42;;;;;;;9.90;2.50;;;;;;;;;;5053382;28;20044;-76
2021/10/07 02:30:08;;;;;;;18.75;2.92;;;;;;;;;;5053460;28;20048;-76
2021/10/07 02:32:34;;;;;;;9.48;2.90;;;;;;;;;;5053294;28;20029;-77
2021/10/07 02:34:59;;;;;;;12.70;2.97;;;;;;;;;;5052916;28;20055;-77
2021/10/07 02:37:24;;;;;;;20.75;3.10;;;;;;;;;;5053434;28;20021;-76
2021/10/07 02:39:49;;;;;;;9.48;2.67;;;;;;;;;;5053403;28;20033;-77
2021/10/07 02:42:15;;;;;;;16.70;2.85;;;;;;;;;;5053285;28;20028;-77
2021/10/07 02:44:40;;;;;;;13.35;3.15;;;;;;;;;;5053297;28;20032;-78
2021/10/07 02:47:05;;;;;;;15.90;3.10;;;;;;;;;;5053167;28;20068;-76
2021/10/07 02:49:31;;;;;;;12.38;3.00;;;;;;;;;;5053295;28;20150;-77
2021/10/07 02:51:56;;;;;;;28.50;3.70;;;;;;;;;;5053169;28;20472;-76
2021/10/07 02:54:21;;;;;;;16.38;3.55;;;;;;;;;;5052930;28;20041;-76
2021/10/07 02:56:46;;;;;;;14.80;3.42;;;;;;;;;;5053155;28;20017;-76
2021/10/07 02:59:12;;;;;;;17.65;3.55;;;;;;;;;;5053124;28;20021;-76
2021/10/07 03:01:38;;;;;;;18.88;3.90;;;;;;;;;;5053001;28;20064;-77
2021/10/07 03:04:03;;;;;;;7.00;2.97;;;;;;;;;;5052995;28;20017;-76
2021/10/07 03:06:28;;;;;;;22.40;3.40;;;;;;;;;;5051860;28;20063;-77
2021/10/07 03:08:56;;;;;;;11.23;2.85;;;;;;;;;;5053220;28;20033;-76
2021/10/07 03:11:22;;;;;;;13.60;3.25;;;;;;;;;;5052659;28;20492;-76
2021/10/07 03:13:47;;;;;;;8.85;2.80;;;;;;;;;;5053316;28;20017;-76
2021/10/07 03:16:12;;;;;;;10.95;2.85;;;;;;;;;;5052915;28;20048;-77
2021/10/07 03:18:37;;;;;;;15.15;2.88;;;;;;;;;;5052959;28;20029;-77
2021/10/07 03:21:03;;;;;;;12.98;3.03;;;;;;;;;;5052656;28;20033;-77
2021/10/07 03:23:28;;;;;;;10.50;2.55;;;;;;;;;;5052890;28;20124;-77
2021/10/07 03:25:53;;;;;;;15.98;2.90;;;;;;;;;;5053010;28;20021;-77
2021/10/07 03:28:18;;;;;;;10.95;2.80;;;;;;;;;;5052987;28;20025;-76
2021/10/07 03:30:44;;;;;;;5.43;2.55;;;;;;;;;;5055909;28;20033;-77
2021/10/07 03:33:10;;;;;;;11.20;2.80;;;;;;;;;;5056612;28;20454;-77
2021/10/07 03:35:36;;;;;;;7.10;2.70;;;;;;;;;;5056573;28;20059;-77
2021/10/07 03:38:02;;;;;;;10.85;3.30;;;;;;;;;;5056343;28;20077;-77
2021/10/07 03:40:27;;;;;;;12.38;3.15;;;;;;;;;;5056402;28;20025;-77
2021/10/07 03:42:52;;;;;;;9.00;2.78;;;;;;;;;;5056628;28;20378;-77
2021/10/07 03:45:18;;;;;;;8.88;2.70;;;;;;;;;;5056377;28;20029;-76
2021/10/07 03:47:43;;;;;;;5.20;2.53;;;;;;;;;;5056341;28;20403;-77
2021/10/07 03:50:09;;;;;;;4.40;2.22;;;;;;;;;;5055891;28;20021;-77
2021/10/07 03:52:34;;;;;;;10.95;2.47;;;;;;;;;;5056364;28;20556;-78
2021/10/07 03:54:59;;;;;;;11.98;3.05;;;;;;;;;;5056173;28;20036;-76
2021/10/07 03:57:26;;;;;;;10.55;2.70;;;;;;;;;;5056223;28;20096;-77
2021/10/07 03:59:52;;;;;;;9.90;2.97;;;;;;;;;;5055881;28;20035;-77
2021/10/07 04:02:17;;;;;;;6.30;2.67;;;;;;;;;;5055751;28;20380;-76
2021/10/07 04:04:42;;;;;;;5.20;2.50;;;;;;;;;;5056105;28;20046;-76
2021/10/07 04:07:08;;;;;;;7.35;2.28;;;;;;;;;;5055891;28;20029;-76
2021/10/07 04:09:33;;;;;;;5.88;2.20;;;;;;;;;;5056004;28;20342;-76
2021/10/07 04:11:58;;;;;;;10.65;2.35;;;;;;;;;;5055807;28;20056;-77
2021/10/07 04:14:24;;;;;;;7.55;2.50;;;;;;;;;;5055881;28;20037;-76
2021/10/07 04:16:49;;;;;;;7.20;2.53;;;;;;;;;;5055752;28;20029;-77
2021/10/07 04:19:14;;;;;;;6.65;2.13;;;;;;;;;;5055869;28;20028;-76
2021/10/07 04:21:40;;;;;;;7.55;2.10;;;;;;;;;;5055625;28;20050;-76
2021/10/07 04:24:05;;;;;;;12.82;2.08;;;;;;;;;;5055574;28;20099;-76
2021/10/07 04:26:32;;;;;;;8.77;2.17;;;;;;;;;;5055638;28;20035;-76
2021/10/07 04:28:57;;;;;;;7.05;1.90;;;;;;;;;;5055496;28;20061;-77
2021/10/07 04:31:23;;;;;;;3.85;2.08;;;;;;;;;;5055533;28;20052;-76
2021/10/07 04:33:48;;;;;;;8.15;2.17;;;;;;;;;;5055568;28;20524;-77
2021/10/07 04:36:13;;;;;;;4.80;2.05;;;;;;;;;;5055445;28;20045;-78
2021/10/07 04:38:39;;;;;;;4.88;2.45;;;;;;;;;;5055445;28;20036;-77
2021/10/07 04:41:04;;;;;;;5.85;2.30;;;;;;;;;;5054987;28;20481;-77
2021/10/07 04:43:29;;;;;;;13.23;2.42;;;;;;;;;;5055275;28;20033;-77
2021/10/07 04:45:55;;;;;;;5.35;2.33;;;;;;;;;;5055153;28;20025;-77
2021/10/07 04:48:20;;;;;;;7.95;2.45;;;;;;;;;;5055298;28;20105;-76
2021/10/07 04:50:45;;;;;;;9.68;2.92;;;;;;;;;;5055090;28;20029;-77
2021/10/07 04:53:11;;;;;;;12.23;2.47;;;;;;;;;;5055151;28;20492;-77
2021/10/07 04:55:36;;;;;;;5.25;2.50;;;;;;;;;;5055109;28;20021;-78
2021/10/07 04:58:01;;;;;;;6.95;2.08;;;;;;;;;;5055198;28;20470;-76
2021/10/07 05:00:27;;;;;;;12.05;3.25;;;;;;;;;;5055012;28;20402;-76
2021/10/07 05:02:52;;;;;;;8.48;3.00;;;;;;;;;;5054845;28;20021;-77
2021/10/07 05:05:17;;;;;;;11.23;3.05;;;;;;;;;;5054938;28;20078;-76
2021/10/07 05:07:43;;;;;;;8.98;2.83;;;;;;;;;;5054843;28;20021;-76
2021/10/07 05:10:09;;;;;;;7.90;2.63;;;;;;;;;;5054752;28;20373;-76
2021/10/07 05:12:35;;;;;;;9.48;2.92;;;;;;;;;;5055012;28;20025;-77
2021/10/07 05:15:00;;;;;;;4.50;2.67;;;;;;;;;;5054636;28;20573;-76
2021/10/07 05:17:26;;;;;;;9.95;4.18;;;;;;;;;;5054577;28;20028;-77
2021/10/07 05:19:51;;;;;;;8.75;3.72;;;;;;;;;;5054535;28;20043;-76
2021/10/07 05:22:16;;;;;;;15.68;4.63;;;;;;;;;;5054529;28;20355;-77
2021/10/07 05:24:42;;;;;;;8.32;3.22;;;;;;;;;;5054558;28;20101;-77
2021/10/07 05:27:07;;;;;;;11.48;3.35;;;;;;;;;;5054438;28;20025;-77
2021/10/07 05:29:33;;;;;;;7.20;3.05;;;;;;;;;;5054421;28;20024;-77
2021/10/07 05:31:58;;;;;;;10.95;3.65;;;;;;;;;;5054009;28;20459;-77
2021/10/07 05:34:24;;;;;;;10.00;3.10;;;;;;;;;;5054162;28;20088;-77
2021/10/07 05:36:49;;;;;;;10.10;3.10;;;;;;;;;;5054330;28;20025;-77
2021/10/07 05:39:14;;;;;;;17.30;3.42;;;;;;;;;;5054384;28;20377;-77
2021/10/07 05:41:40;;;;;;;9.77;2.90;;;;;;;;;;5054010;28;20045;-77
2021/10/07 05:44:10;;;;;;;13.15;2.60;;;;;;;;;;5054158;28;20266;-77
2021/10/07 05:46:36;;;;;;;13.68;3.65;;;;;;;;;;5054147;28;20032;-76
2021/10/07 05:49:01;;;;;;;8.35;2.92;;;;;;;;;;5053912;28;20029;-77
2021/10/07 05:51:27;;;;;;;8.77;2.25;;;;;;;;;;5054023;28;20047;-77
2021/10/07 05:53:52;;;;;;;8.13;2.50;;;;;;;;;;5054008;28;20158;-77
2021/10/07 05:56:17;;;;;;;9.70;2.95;;;;;;;;;;5053943;28;20039;-77
2021/10/07 05:58:42;;;;;;;7.75;2.13;;;;;;;;;;5053839;28;20472;-76
2021/10/07 06:01:08;;;;;;;5.35;2.30;;;;;;;;;;5053443;28;20036;-76
2021/10/07 06:03:33;;;;;;;7.80;2.72;;;;;;;;;;5053855;28;20033;-77
2021/10/07 06:05:58;;;;;;;5.50;2.45;;;;;;;;;;5053726;28;20017;-76
2021/10/07 06:08:24;;;;;;;6.78;2.15;;;;;;;;;;5053792;28;20358;-77
2021/10/07 06:10:49;;;;;;;8.20;2.33;;;;;;;;;;5053547;28;20100;-77
2021/10/07 06:13:14;;;;;;;8.85;2.50;;;;;;;;;;5053673;28;20031;-77
2021/10/07 06:15:39;;;;;;;9.32;2.20;;;;;;;;;;5053367;28;20029;-77
2021/10/07 06:18:05;;;;;;;12.63;3.08;;;;;;;;;;5053514;28;20029;-77
2021/10/07 06:20:33;;;;;;;4.82;2.53;;;;;;;;;;5053494;28;20021;-77
2021/10/07 06:23:07;;;;;;;16.75;3.83;;;;;;;;;;5053107;28;20466;-77
2021/10/07 06:25:34;;;;;;;6.15;3.70;;;;;;;;;;5053473;28;20068;-77
2021/10/07 06:28:00;;;;;;;10.25;4.47;;;;;;;;;;5053410;28;20029;-77
2021/10/07 06:30:25;;;;;;;10.75;3.20;;;;;;;;;;5053255;28;20504;-77
2021/10/07 06:32:51;;;;;;;10.55;3.08;;;;;;;;;;5053563;28;20029;-77
2021/10/07 06:35:16;;;;;;;6.30;2.38;;;;;;;;;;5053728;28;20136;-77
2021/10/07 06:37:42;;;;;;;6.35;3.13;;;;;;;;;;5053694;28;20044;-78
2021/10/07 06:40:08;;;;;;;6.15;2.78;;;;;;;;;;5053544;28;20099;-77
2021/10/07 06:42:34;;;;;;;6.35;2.33;;;;;;;;;;5053452;28;20035;-77
2021/10/07 06:45:01;;;;;;;7.20;2.38;;;;;;;;;;5053252;28;20116;-77
2021/10/07 06:47:26;;;;;;;9.70;2.38;;;;;;;;;;5052974;28;20028;-77
2021/10/07 06:49:52;;;;;;;6.63;1.95;;;;;;;;;;5053209;28;20020;-77
2021/10/07 06:52:18;;;;;;;5.38;1.95;;;;;;;;;;5053070;28;20039;-78
2021/10/07 06:54:43;;;;;;;5.90;2.15;;;;;;;;;;5053342;28;20079;-77
2021/10/07 06:57:08;;;;;;;11.75;2.92;;;;;;;;;;5052995;28;20462;-77
2021/10/07 06:59:33;;;;;;;7.10;2.65;;;;;;;;;;5052898;28;20497;-77
2021/10/07 07:01:59;;;;;;;8.50;3.00;;;;;;;;;;5052923;28;20033;-77
2021/10/07 07:04:24;;;;;;;5.47;3.33;;;;;;;;;;5056029;28;20013;-77
2021/10/07 07:06:50;;;;;;;8.13;2.85;;;;;;;;;;5057287;28;20025;-78
2021/10/07 07:09:16;;;;;;;7.65;2.53;;;;;;;;;;5057592;28;20029;-77
2021/10/07 07:11:41;;;;;;;8.43;3.58;;;;;;;;;;5057043;28;20027;-78
2021/10/07 07:14:07;;;;;;;9.30;4.30;;;;;;;;;;5057035;28;20039;-78
2021/10/07 07:16:33;;;;;;;11.88;3.72;;;;;;;;;;5056839;28;20060;-77
2021/10/07 07:18:59;;;;;;;15.00;5.00;;;;;;;;;;5056797;28;20405;-77
2021/10/07 07:21:28;;;;;;;9.18;4.60;;;;;;;;;;5056852;28;20045;-77
2021/10/07 07:23:54;;;;;;;9.98;4.10;;;;;;;;;;5056558;28;20091;-77
2021/10/07 07:26:19;;;;;;;16.95;4.13;;;;;;;;;;5056927;28;20089;-77
2021/10/07 07:28:45;;;;;;;7.53;3.30;;;;;;;;;;5056697;28;20037;-78
2021/10/07 07:31:10;;;;;;;10.52;2.97;;;;;;;;;;5056876;28;20033;-78
2021/10/07 07:33:36;;;;;;;9.02;3.53;;;;;;;;;;5056445;28;20097;-77
2021/10/07 07:36:01;;;;;;;13.88;5.07;;;;;;;;;;5055968;28;20107;-77
2021/10/07 07:38:26;;;;;;;6.18;2.97;;;;;;;;;;5056584;28;20056;-78
2021/10/07 07:40:52;;;;;;;5.47;2.95;;;;;;;;;;5056315;28;20042;-78
2021/10/07 07:43:20;;;;;;;9.90;2.97;;;;;;;;;;5050046;28;20438;-77
2021/10/07 07:45:49;;;;;;;18.02;6.40;;;;;;;;;;5055946;28;20025;-77
2021/10/07 07:48:14;;;;;;;7.07;3.20;;;;;;;;;;5055964;28;20036;-77
2021/10/07 07:50:40;;;;;;;19.10;6.18;;;;;;;;;;5050519;28;20025;-77
2021/10/07 07:53:05;;;;;;;11.25;6.28;;;;;;;;;;5053777;28;20036;-78
2021/10/07 07:55:31;;;;;;;15.82;5.90;;;;;;;;;;5056356;28;20025;-77
2021/10/07 07:57:56;;;;;;;16.75;6.60;;;;;;;;;;5048725;28;20264;-77
2021/10/07 08:00:21;;;;;;;15.60;7.15;;;;;;;;;;5052006;28;20041;-77
2021/10/07 08:02:47;;;;;;;17.48;6.18;;;;;;;;;;5052198;28;20535;-78
2021/10/07 08:05:14;;;;;;;13.88;5.80;;;;;;;;;;5052254;28;20033;-78
2021/10/07 08:07:39;;;;;;;12.98;6.20;;;;;;;;;;5053025;28;20485;-78
2021/10/07 08:10:05;;;;;;;14.02;6.38;;;;;;;;;;5051715;28;20027;-78
2021/10/07 08:12:33;;;;;;;12.80;6.25;;;;;;;;;;5051981;28;20033;-78
2021/10/07 08:14:59;;;;;;;16.80;6.75;;;;;;;;;;5051408;28;20068;-77
2021/10/07 08:17:25;;;;;;;16.33;7.13;;;;;;;;;;5052394;28;20100;-77
2021/10/07 08:19:50;;;;;;;17.67;6.97;;;;;;;;;;5052272;28;20120;-78
2021/10/07 08:22:15;;;;;;;18.13;7.28;;;;;;;;;;5052384;28;20049;-78
2021/10/07 08:24:41;;;;;;;13.68;7.25;;;;;;;;;;5051904;28;20498;-78
2021/10/07 08:27:06;;;;;;;16.92;7.40;;;;;;;;;;5051885;28;20474;-78
2021/10/07 08:29:31;;;;;;;15.93;7.97;;;;;;;;;;5052153;28;20033;-78
2021/10/07 08:31:57;;;;;;;21.45;10.32;;;;;;;;;;5050738;28;20017;-78
2021/10/07 08:34:22;;;;;;;24.98;11.15;;;;;;;;;;5051843;28;20542;-76
2021/10/07 08:36:47;;;;;;;23.98;12.52;;;;;;;;;;5049899;28;20048;-77
2021/10/07 08:39:14;;;;;;;27.88;12.73;;;;;;;;;;5050058;28;20013;-77
2021/10/07 08:41:40;;;;;;;28.30;12.23;;;;;;;;;;5050122;28;20045;-77
2021/10/07 08:44:05;;;;;;;29.75;12.77;;;;;;;;;;5049943;28;20034;-78
2021/10/07 08:46:31;;;;;;;28.45;15.25;;;;;;;;;;5050435;28;20089;-78
2021/10/07 08:48:57;;;;;;;29.65;14.95;;;;;;;;;;5051105;28;20037;-77
2021/10/07 08:51:22;;;;;;;27.48;12.75;;;;;;;;;;5050011;28;20032;-76
2021/10/07 08:53:47;;;;;;;22.48;11.55;;;;;;;;;;5049706;28;20485;-77
2021/10/07 08:56:13;;;;;;;20.83;11.75;;;;;;;;;;5049624;28;20067;-77
2021/10/07 08:58:38;;;;;;;25.27;13.13;;;;;;;;;;5050258;28;20040;-77
2021/10/07 09:01:05;;;;;;;22.33;13.90;;;;;;;;;;5050810;28;20043;-77
2021/10/07 09:03:30;;;;;;;26.05;14.82;;;;;;;;;;5049131;28;20474;-77
2021/10/07 09:06:12;;;;;;;26.92;15.18;;;;;;;;;;5050314;28;20040;-78
2021/10/07 09:08:48;;;;;;;26.05;13.93;;;;;;;;;;5050090;28;20460;-78
2021/10/07 09:11:29;;;;;;;23.00;13.32;;;;;;;;;;5050371;28;20032;-77
2021/10/07 09:14:01;;;;;;;23.15;11.32;;;;;;;;;;5042800;28;20025;-78
2021/10/07 09:16:29;;;;;;;22.35;10.68;;;;;;;;;;5047844;28;20036;-77
2021/10/07 09:18:54;;;;;;;17.90;10.43;;;;;;;;;;5049361;28;20017;-77
2021/10/07 09:21:30;;;;;;;19.23;9.90;;;;;;;;;;5049372;28;20068;-77
2021/10/07 09:23:55;;;;;;;;;;;;;;;;;;5049716;28;20029;-77
2021/10/07 09:26:20;;;;;;;15.88;8.75;;;;;;;;;;5044600;28;19915;-77
2021/10/07 09:28:58;;;;;;;12.02;7.80;;;;;;;;;;5048907;28;20041;-78
2021/10/07 09:31:31;;;;;;;14.20;7.88;;;;;;;;;;5049542;28;20040;-78
2021/10/07 09:34:00;;;;;;;12.85;6.85;;;;;;;;;;5048710;28;20060;-77
2021/10/07 09:36:25;;;;;;;9.45;6.25;;;;;;;;;;5048846;28;20082;-78
2021/10/07 09:38:52;;;;;;;8.05;5.45;;;;;;;;;;5048871;28;20041;-77
2021/10/07 09:41:20;;;;;;;10.05;5.05;;;;;;;;;;5049000;28;20036;-77
2021/10/07 09:44:01;;;;;;;11.52;5.22;;;;;;;;;;5048674;28;20025;-78
2021/10/07 09:46:45;;;;;;;6.85;4.00;;;;;;;;;;5049468;28;20468;-77
2021/10/07 09:49:11;;;;;;;8.35;4.18;;;;;;;;;;5047997;28;20032;-78
2021/10/07 09:51:37;;;;;;;9.50;4.57;;;;;;;;;;5048920;28;20037;-78
2021/10/07 09:54:03;;;;;;;8.25;4.50;;;;;;;;;;5047975;28;20013;-77
2021/10/07 09:56:30;;;;;;;7.85;4.18;;;;;;;;;;5049347;28;20040;-77
2021/10/07 09:58:56;;;;;;;6.78;3.92;;;;;;;;;;5048730;28;20033;-77
2021/10/07 10:01:21;;;;;;;7.18;4.13;;;;;;;;;;5047719;28;20041;-78
2021/10/07 10:03:47;;;;;;;9.18;3.60;;;;;;;;;;5048220;28;20039;-78
2021/10/07 10:06:12;;;;;;;6.90;3.53;;;;;;;;;;5048307;28;20484;-77
2021/10/07 10:08:38;;;;;;;9.13;3.63;;;;;;;;;;5049661;28;20074;-76
2021/10/07 10:11:04;;;;;;;11.18;3.22;;;;;;;;;;5049044;28;20025;-77
2021/10/07 10:13:32;;;;;;;8.18;2.88;;;;;;;;;;5049287;28;20069;-77
2021/10/07 10:15:57;;;;;;;5.35;2.85;;;;;;;;;;5049649;28;20139;-77
2021/10/07 10:18:23;;;;;;;6.65;3.22;;;;;;;;;;5049477;28;20047;-77
2021/10/07 10:20:51;;;;;;;5.50;2.72;;;;;;;;;;5035513;28;20504;-76
2021/10/07 10:23:17;;;;;;;6.18;2.33;;;;;;;;;;5029167;28;20454;-78
2021/10/07 10:26:00;;;;;;;6.30;1.98;;;;;;;;;;5029929;28;20029;-77
2021/10/07 10:28:52;;;;;;;3.83;2.00;;;;;;;;;;5029097;28;20029;-77
2021/10/07 10:31:17;;;;;;;4.05;1.90;;;;;;;;;;5028492;28;20124;-77
2021/10/07 10:33:43;;;;;;;3.25;1.50;;;;;;;;;;5029007;28;20589;-78
2021/10/07 10:36:28;;;;;;;5.88;1.60;;;;;;;;;;5043467;28;20057;-77
2021/10/07 10:39:01;;;;;;;4.78;1.40;;;;;;;;;;5047295;28;20041;-79
2021/10/07 10:41:42;;;;;;;4.03;1.50;;;;;;;;;;5048784;28;20130;-78
2021/10/07 10:44:25;;;;;;;3.53;1.10;;;;;;;;;;5048894;28;20033;-79
2021/10/07 10:46:57;;;;;;;7.45;1.67;;;;;;;;;;5049475;28;20028;-78
2021/10/07 10:49:34;;;;;;;4.22;1.30;;;;;;;;;;5049464;28;20376;-79
2021/10/07 10:52:00;;;;;;;2.72;1.27;;;;;;;;;;5048910;28;20397;-78
2021/10/07 10:54:32;;;;;;;2.08;1.08;;;;;;;;;;5049343;28;20032;-77
2021/10/07 10:56:58;;;;;;;7.50;1.38;;;;;;;;;;5049878;28;20032;-79
2021/10/07 10:59:24;;;;;;;4.32;1.15;;;;;;;;;;5048939;28;20056;-77
2021/10/07 11:02:08;;;;;;;2.50;1.08;;;;;;;;;;5048993;28;20126;-77
2021/10/07 11:04:43;;;;;;;3.97;1.10;;;;;;;;;;5049712;28;20025;-77
2021/10/07 11:07:19;;;;;;;3.15;1.55;;;;;;;;;;5049417;28;20058;-78
2021/10/07 11:09:59;;;;;;;2.95;1.30;;;;;;;;;;5049387;28;20036;-77
2021/10/07 11:12:29;;;;;;;3.30;1.27;;;;;;;;;;5049744;28;20028;-78
2021/10/07 11:14:55;;;;;;;9.07;1.45;;;;;;;;;;5048806;28;20072;-77
2021/10/07 11:17:22;;;;;;;2.75;1.50;;;;;;;;;;5049428;28;20425;-77
2021/10/07 11:19:47;;;;;;;2.67;1.30;;;;;;;;;;5049270;28;20031;-78
2021/10/07 11:22:13;;;;;;;5.80;1.30;;;;;;;;;;5049883;28;20132;-77
2021/10/07 11:24:48;;;;;;;2.47;1.13;;;;;;;;;;5049793;28;20032;-78
2021/10/07 11:27:14;;;;;;;4.28;1.40;;;;;;;;;;5049894;28;20029;-77
2021/10/07 11:29:39;;;;;;;3.97;1.30;;;;;;;;;;5049992;28;20075;-77
2021/10/07 11:32:05;;;;;;;3.83;0.93;;;;;;;;;;5049123;28;20025;-77
2021/10/07 11:34:30;;;;;;;6.00;1.13;;;;;;;;;;5048861;28;20045;-78
2021/10/07 11:36:55;;;;;;;3.22;1.20;;;;;;;;;;5050377;28;21195;-79
2021/10/07 11:39:21;;;;;;;3.17;1.17;;;;;;;;;;5059034;28;20020;-78
2021/10/07 11:41:46;;;;;;;3.20;1.40;;;;;;;;;;5051395;28;20032;-79
2021/10/07 11:44:12;;;;;;;4.28;1.55;;;;;;;;;;5060749;28;20039;-79
2021/10/07 11:46:37;;;;;;;4.43;1.30;;;;;;;;;;5053412;28;20025;-79
2021/10/07 11:49:03;;;;;;;6.05;1.17;;;;;;;;;;5059082;28;20029;-78
2021/10/07 11:51:30;;;;;;;3.30;1.38;;;;;;;;;;5052254;28;20563;-80
2021/10/07 11:54:02;;;;;;;3.60;1.27;;;;;;;;;;5055692;28;20017;-78
2021/10/07 11:56:27;;;;;;;6.45;1.48;;;;;;;;;;5055938;28;20025;-78
2021/10/07 11:58:54;;;;;;;2.03;1.23;;;;;;;;;;5057575;28;20465;-79
2021/10/07 12:01:24;;;;;;;2.70;1.25;;;;;;;;;;5062462;28;20064;-80
2021/10/07 12:03:53;;;;;;;3.00;1.35;;;;;;;;;;5060071;28;20029;-78
2021/10/07 12:06:18;;;;;;;3.72;1.95;;;;;;;;;;5057917;28;20041;-81
2021/10/07 12:08:44;;;;;;;3.42;1.17;;;;;;;;;;5068504;28;20024;-79
2021/10/07 12:11:11;;;;;;;1.90;1.15;;;;;;;;;;5057313;28;20024;-78
2021/10/07 12:13:38;;;;;;;5.35;1.83;;;;;;;;;;5062234;28;20028;-78
2021/10/07 12:16:05;;;;;;;4.55;1.67;;;;;;;;;;5052274;28;20021;-78
2021/10/07 12:18:33;;;;;;;3.45;1.58;;;;;;;;;;5051947;28;20132;-78
2021/10/07 12:21:12;;;;;;;5.00;1.38;;;;;;;;;;5052057;28;20037;-78
2021/10/07 12:23:49;;;;;;;7.30;1.63;;;;;;;;;;5052642;28;20025;-78
2021/10/07 12:26:25;;;;;;;3.03;1.40;;;;;;;;;;5056271;28;20054;-81
2021/10/07 12:28:51;;;;;;;5.05;1.85;;;;;;;;;;5053683;28;20028;-79
2021/10/07 12:31:23;;;;;;;2.78;1.42;;;;;;;;;;5053960;28;20485;-82
2021/10/07 12:33:55;;;;;;;3.53;1.45;;;;;;;;;;5053660;28;20017;-82
2021/10/07 12:36:20;;;;;;;3.60;1.35;;;;;;;;;;5050245;28;20060;-82
2021/10/07 12:38:46;;;;;;;2.47;1.30;;;;;;;;;;5052047;28;20025;-78
2021/10/07 12:41:12;;;;;;;5.28;2.05;;;;;;;;;;5044264;28;20036;-79
2021/10/07 12:43:50;;;;;;;3.17;1.35;;;;;;;;;;5051911;28;20074;-78
2021/10/07 12:46:19;;;;;;;7.20;1.58;;;;;;;;;;5051527;28;20110;-78
2021/10/07 12:48:54;;;;;;;4.13;1.42;;;;;;;;;;5047233;28;20035;-79
2021/10/07 12:51:21;;;;;;;2.30;1.20;;;;;;;;;;5059395;28;20533;-77
2021/10/07 12:53:47;;;;;;;4.35;1.77;;;;;;;;;;5059304;28;20103;-78
2021/10/07 12:56:14;;;;;;;2.60;1.45;;;;;;;;;;5051957;28;20124;-80
2021/10/07 12:58:47;;;;;;;3.25;1.42;;;;;;;;;;5050018;28;20100;-78
2021/10/07 13:01:13;;;;;;;5.65;2.95;;;;;;;;;;5056216;28;20049;-78
2021/10/07 13:03:38;;;;;;;2.00;1.20;;;;;;;;;;5060409;28;20035;-78
2021/10/07 13:06:07;;;;;;;3.47;1.35;;;;;;;;;;5051192;28;20516;-78
2021/10/07 13:08:33;;;;;;;2.45;1.23;;;;;;;;;;5049927;28;20508;-78
2021/10/07 13:10:59;;;;;;;3.60;1.55;;;;;;;;;;5050644;28;20029;-78
2021/10/07 13:13:25;;;;;;;3.55;1.33;;;;;;;;;;5049721;28;20025;-79
2021/10/07 13:15:50;;;;;;;4.05;1.30;;;;;;;;;;5049943;28;20028;-79
2021/10/07 13:18:16;;;;;;;2.05;0.85;;;;;;;;;;5048974;28;20029;-79
2021/10/07 13:20:41;;;;;;;2.70;1.13;;;;;;;;;;5049961;28;20032;-82
2021/10/07 13:23:06;;;;;;;2.35;1.20;;;;;;;;;;5050329;28;20466;-78
2021/10/07 13:25:37;;;;;;;2.85;0.90;;;;;;;;;;5050154;28;20033;-78
2021/10/07 13:28:03;;;;;;;5.20;0.95;;;;;;;;;;5049460;28;20067;-78
2021/10/07 13:30:29;;;;;;;2.08;1.05;;;;;;;;;;5050468;28;20075;-79
2021/10/07 13:32:55;;;;;;;2.05;1.00;;;;;;;;;;5050578;28;20033;-79
2021/10/07 13:35:21;;;;;;;2.05;0.82;;;;;;;;;;5050258;28;20506;-78
2021/10/07 13:37:49;;;;;;;3.55;0.90;;;;;;;;;;5050437;28;20048;-78
2021/10/07 13:40:15;;;;;;;4.68;1.20;;;;;;;;;;5049404;28;20037;-79
2021/10/07 13:42:41;;;;;;;2.80;1.33;;;;;;;;;;5048713;28;20039;-78
2021/10/07 13:45:06;;;;;;;4.38;1.45;;;;;;;;;;5049439;28;20055;-79
2021/10/07 13:47:31;;;;;;;2.65;1.23;;;;;;;;;;5048960;28;20262;-79
2021/10/07 13:49:57;;;;;;;2.53;1.02;;;;;;;;;;5048260;28;20028;-79
2021/10/07 13:52:25;;;;;;;2.63;1.55;;;;;;;;;;5044824;28;20057;-78
2021/10/07 13:54:51;;;;;;;2.17;1.35;;;;;;;;;;5048192;28;20500;-81
2021/10/07 13:57:16;;;;;;;3.92;1.40;;;;;;;;;;5048171;28;20099;-78
2021/10/07 13:59:41;;;;;;;5.32;1.70;;;;;;;;;;5048283;28;20033;-78
2021/10/07 14:02:07;;;;;;;3.58;1.08;;;;;;;;;;5048251;28;20170;-78
2021/10/07 14:04:32;;;;;;;3.47;1.30;;;;;;;;;;5048963;28;20031;-78
2021/10/07 14:06:57;;;;;;;2.65;1.02;;;;;;;;;;5048601;28;20059;-78
2021/10/07 14:09:23;;;;;;;4.28;1.70;;;;;;;;;;5049200;28;20524;-77
2021/10/07 14:11:51;;;;;;;6.18;2.05;;;;;;;;;;5047789;28;20469;-79
2021/10/07 14:14:16;;;;;;;2.55;1.35;;;;;;;;;;5049007;28;20033;-79
2021/10/07 14:16:41;;;;;;;3.17;1.60;;;;;;;;;;5049438;28;20448;-78
2021/10/07 14:19:07;;;;;;;3.33;1.50;;;;;;;;;;5049054;28;20021;-79
2021/10/07 14:21:32;;;;;;;3.90;1.23;;;;;;;;;;5049409;28;20070;-79
2021/10/07 14:23:57;;;;;;;5.47;1.60;;;;;;;;;;5049047;28;20412;-79
2021/10/07 14:26:23;;;;;;;3.35;1.40;;;;;;;;;;5049092;28;20021;-78
2021/10/07 14:28:48;;;;;;;3.97;1.85;;;;;;;;;;5049329;28;20025;-79
2021/10/07 14:31:13;;;;;;;4.22;1.55;;;;;;;;;;5049865;28;20024;-77
2021/10/07 14:33:39;;;;;;;3.88;1.65;;;;;;;;;;5048583;28;20029;-78
2021/10/07 14:36:04;;;;;;;4.45;1.48;;;;;;;;;;5049679;28;20068;-78
2021/10/07 14:38:30;;;;;;;5.68;1.70;;;;;;;;;;5048917;28;20061;-79
2021/10/07 14:40:55;;;;;;;4.07;1.50;;;;;;;;;;5049322;28;20473;-80
2021/10/07 14:43:21;;;;;;;3.33;1.60;;;;;;;;;;5049203;28;20025;-80